Littorina — DLMG — position and weather

sailwx.info

Track history (hours):
 
Tides and Currents Weather Stations Pressure Air Temp Water Temp Dewpoint Dewpoint Depression Visibility Wind Speed Wind Dir Waves Ship Positions

Oceanographic research ship Littorina (Germany)

Detailed information on ship capabilities available from University of Delaware's Ocean Information Center.

Last reported at 2014-Nov-24 21:31 UTC. Time now 2014-Nov-24 21:40 UTC.
Position N 53°54' E 009°09'.

Length 30 m; draft 3 m.

Type: Fishing. MMSI: 211214250.

Date/timePositionNaut miles runAvg speedWind from/ knotsBaromVisibWave heightAir tempDewpointWater temp
2014-Nov-24 21:31N 53°54' E 009°09'0 0.0
2014-Nov-24 20:31N 53°54' E 009°09'0 0.0
2014-Nov-24 19:31N 53°54' E 009°09'0 0.0
2014-Nov-24 18:31N 53°54' E 009°09'0 0.0
2014-Nov-24 17:31N 53°54' E 009°09'0 0.0
2014-Nov-24 16:34N 53°54' E 009°09'8 8.3
2014-Nov-24 15:33N 54°00' E 009°18'24 7.8
2014-Nov-24 12:31N 54°19' E 009°43'6 6.4
2014-Nov-24 11:33N 54°21' E 009°53'6 5.6
2014-Nov-24 10:33N 54°22' E 010°02'4 3.8
2014-Nov-24 09:33N 54°22' E 010°09'2 2.2
2014-Nov-24 08:33N 54°20' E 010°09'0 0.0
2014-Nov-24 07:33N 54°20' E 010°09'0 0.0
2014-Nov-24 06:33N 54°20' E 010°09'0 0.0
2014-Nov-24 05:33N 54°20' E 010°09'0 0.0
2014-Nov-24 04:27N 54°20' E 010°09'0 0.0
2014-Nov-24 03:33N 54°20' E 010°09'0 0.0
2014-Nov-24 02:27N 54°20' E 010°09'0 0.0
2014-Nov-24 01:33N 54°20' E 010°09'0 0.0
2014-Nov-24 00:27N 54°20' E 010°09'0 0.0
2014-Nov-23 23:33N 54°20' E 010°09'0 0.0
2014-Nov-23 22:33N 54°20' E 010°09'0 0.0
2014-Nov-23 21:33N 54°20' E 010°09'0 0.0
2014-Nov-23 20:33N 54°20' E 010°09'0 0.0
2014-Nov-23 19:33N 54°20' E 010°09'0 0.0
2014-Nov-23 18:27N 54°20' E 010°09'0 0.0
2014-Nov-23 17:33N 54°20' E 010°09'0 0.0
2014-Nov-23 16:33N 54°20' E 010°09'0 0.0
2014-Nov-23 15:33N 54°20' E 010°09'0 0.0
2014-Nov-23 14:27N 54°20' E 010°09'0 0.0
2014-Nov-23 13:33N 54°20' E 010°09'0 0.0
2014-Nov-23 12:33N 54°20' E 010°09'0 0.0
2014-Nov-23 11:33N 54°20' E 010°09'0 0.0
2014-Nov-23 10:33N 54°20' E 010°09'0 0.0
2014-Nov-23 09:33N 54°20' E 010°09'0 0.0
2014-Nov-23 08:27N 54°20' E 010°09'0 0.0
2014-Nov-23 07:33N 54°20' E 010°09'0 0.0
2014-Nov-23 06:27N 54°20' E 010°09'0 0.0
2014-Nov-23 05:33N 54°20' E 010°09'0 0.0
2014-Nov-23 04:33N 54°20' E 010°09'0 0.0
2014-Nov-23 03:27N 54°20' E 010°09'0 0.0
2014-Nov-23 02:33N 54°20' E 010°09'0 0.0
2014-Nov-23 01:33N 54°20' E 010°09'0 0.0
2014-Nov-23 00:27N 54°20' E 010°09'0 0.0
2014-Nov-22 23:33N 54°20' E 010°09'0 0.0
2014-Nov-22 22:27N 54°20' E 010°09'0 0.0
2014-Nov-22 21:27N 54°20' E 010°09'0 0.0
2014-Nov-22 20:33N 54°20' E 010°09'0 0.0
2014-Nov-22 19:33N 54°20' E 010°09'0 0.0
2014-Nov-22 18:33N 54°20' E 010°09'0 0.0
2014-Nov-22 17:21N 54°20' E 010°09'0 0.0
2014-Nov-22 16:27N 54°20' E 010°09'0 0.0
2014-Nov-22 15:33N 54°20' E 010°09'0 0.0
2014-Nov-22 14:27N 54°20' E 010°09'0 0.0
2014-Nov-22 13:33N 54°20' E 010°09'0 0.0
2014-Nov-22 10:15N 54°20' E 010°09'0 0.0
2014-Nov-22 09:33N 54°20' E 010°09'0 0.0
2014-Nov-22 08:33N 54°20' E 010°09'0 0.0
2014-Nov-22 07:33N 54°20' E 010°09'0 0.0
2014-Nov-22 06:33N 54°20' E 010°09'0 0.0
2014-Nov-22 05:33N 54°20' E 010°09'0 0.0
2014-Nov-22 04:33N 54°20' E 010°09'0 0.0
2014-Nov-22 03:33N 54°20' E 010°09'0 0.0
2014-Nov-22 02:33N 54°20' E 010°09'0 0.0
2014-Nov-22 01:33N 54°20' E 010°09'0 0.0
2014-Nov-22 00:33N 54°20' E 010°09'0 0.0
2014-Nov-21 23:33N 54°20' E 010°09'0 0.0
2014-Nov-21 22:33N 54°20' E 010°09'0 0.0
2014-Nov-21 21:33N 54°20' E 010°09'0 0.0
2014-Nov-21 20:33N 54°20' E 010°09'0 0.0
2014-Nov-21 19:33N 54°20' E 010°09'0 0.0
2014-Nov-21 18:27N 54°20' E 010°09'0 0.0
2014-Nov-21 17:33N 54°20' E 010°09'0 0.0
2014-Nov-21 16:33N 54°20' E 010°09'0 0.0
2014-Nov-21 15:33N 54°20' E 010°09'1 1.0
2014-Nov-21 14:33N 54°20' E 010°11'8 7.4
2014-Nov-21 13:28N 54°28' E 010°13'7 7.4
2014-Nov-21 12:33N 54°31' E 010°03'2 1.4
2014-Nov-21 11:27N 54°32' E 010°04'1 0.8
2014-Nov-21 10:33N 54°33' E 010°05'1 1.1
2014-Nov-21 09:31N 54°32' E 010°03'0 0.3
2014-Nov-21 08:32N 54°32' E 010°03'2 2.0
2014-Nov-21 07:34N 54°31' E 010°01'1 0.1
2014-Nov-20 14:10N 54°30' E 010°00'2 3.4
2014-Nov-20 13:33N 54°30' E 010°04'1 1.1
2014-Nov-20 12:33N 54°30' E 010°02'1 0.4
2014-Nov-20 10:13N 54°30' E 010°04'0 0.4
2014-Nov-20 09:33N 54°30' E 010°04'1 1.4
2014-Nov-20 08:33N 54°31' E 010°03'3 3.1
2014-Nov-20 07:33N 54°29' E 009°58'3 0.2
2014-Nov-19 14:31N 54°28' E 009°54'6 6.1
2014-Nov-19 13:33N 54°31' E 010°03'0 0.3
2014-Nov-19 12:33N 54°31' E 010°04'0 0.2
2014-Nov-19 11:33N 54°31' E 010°04'0 0.3
2014-Nov-19 10:33N 54°31' E 010°04'1 1.2
2014-Nov-19 09:32N 54°32' E 010°02'5 4.9
2014-Nov-19 08:32N 54°30' E 010°10'8 7.8
2014-Nov-19 07:33N 54°22' E 010°11'2 2.3
2014-Nov-19 06:31N 54°20' E 010°09'0 0.0
2014-Nov-19 05:31N 54°20' E 010°09'0 0.0
2014-Nov-19 04:31N 54°20' E 010°09'0 0.0
2014-Nov-19 03:31N 54°20' E 010°09'0 0.0
2014-Nov-19 02:31N 54°20' E 010°09'0 0.0
2014-Nov-19 01:28N 54°20' E 010°09'0 0.0
2014-Nov-19 00:31N 54°20' E 010°09'0 0.0
2014-Nov-18 23:28N 54°20' E 010°09'0 0.0
2014-Nov-18 22:31N 54°20' E 010°09'0 0.0
2014-Nov-18 21:31N 54°20' E 010°09'0 0.0
2014-Nov-18 20:28N 54°20' E 010°09'0 0.0
2014-Nov-18 19:28N 54°20' E 010°09'0 0.0
2014-Nov-18 18:04N 54°20' E 010°09'0 0.0
2014-Nov-18 17:28N 54°20' E 010°09'0 0.0
2014-Nov-18 16:31N 54°20' E 010°09'0 0.0
2014-Nov-18 15:31N 54°20' E 010°09'0 0.0
2014-Nov-18 14:32N 54°20' E 010°09'0 0.0
2014-Nov-18 13:32N 54°20' E 010°09'0 0.0
2014-Nov-18 12:32N 54°20' E 010°09'5 5.4
2014-Nov-18 11:33N 54°25' E 010°12'7 7.5
2014-Nov-18 10:33N 54°31' E 010°05'2 1.6
2014-Nov-18 09:28N 54°32' E 010°02'3 3.0
2014-Nov-18 08:23N 54°30' E 010°07'7 8.0
2014-Nov-18 07:33N 54°24' E 010°12'5 4.5
2014-Nov-18 06:32N 54°20' E 010°09'0 0.0
2014-Nov-18 05:32N 54°20' E 010°09'0 0.0
2014-Nov-18 04:32N 54°20' E 010°09'0 0.0
2014-Nov-18 03:26N 54°20' E 010°09'0 0.0
2014-Nov-18 02:32N 54°20' E 010°09'0 0.0
2014-Nov-18 01:32N 54°20' E 010°09'0 0.0
2014-Nov-18 00:29N 54°20' E 010°09'0 0.0
2014-Nov-17 23:32N 54°20' E 010°09'0 0.0
2014-Nov-17 22:29N 54°20' E 010°09'0 0.0
2014-Nov-17 21:32N 54°20' E 010°09'0 0.0
2014-Nov-17 20:32N 54°20' E 010°09'0 0.0
2014-Nov-17 19:32N 54°20' E 010°09'0 0.0
2014-Nov-17 18:32N 54°20' E 010°09'0 0.0
2014-Nov-17 17:29N 54°20' E 010°09'0 0.0
2014-Nov-17 16:32N 54°20' E 010°09'0 0.0
2014-Nov-17 15:32N 54°20' E 010°09'0 0.0
2014-Nov-17 14:32N 54°20' E 010°09'0 0.0
2014-Nov-17 13:23N 54°20' E 010°09'0 0.0
2014-Nov-17 12:29N 54°20' E 010°09'0 0.0
2014-Nov-17 11:29N 54°20' E 010°09'0 0.0
2014-Nov-17 10:29N 54°20' E 010°09'0 0.0
2014-Nov-17 09:29N 54°20' E 010°09'0 0.0
2014-Nov-17 08:23N 54°20' E 010°09'0 0.0
2014-Nov-17 07:23N 54°20' E 010°09'0 0.0
2014-Nov-17 06:29N 54°20' E 010°09'0 0.0
2014-Nov-17 05:29N 54°20' E 010°09'0 0.0
2014-Nov-17 04:29N 54°20' E 010°09'0 0.0
2014-Nov-17 03:23N 54°20' E 010°09'0 0.0
2014-Nov-17 02:23N 54°20' E 010°09'0 0.0
2014-Nov-17 01:29N 54°20' E 010°09'0 0.0
2014-Nov-17 00:23N 54°20' E 010°09'0 0.0
2014-Nov-16 23:29N 54°20' E 010°09'0 0.0
2014-Nov-16 22:29N 54°20' E 010°09'0 0.0
2014-Nov-16 21:29N 54°20' E 010°09'0 0.0
2014-Nov-16 20:23N 54°20' E 010°09'0 0.0
2014-Nov-16 19:29N 54°20' E 010°09'0 0.0
2014-Nov-16 18:29N 54°20' E 010°09'0 0.0
2014-Nov-16 17:11N 54°20' E 010°09'0 0.0
2014-Nov-16 16:29N 54°20' E 010°09'0 0.0
2014-Nov-16 14:29N 54°20' E 010°09'0 0.0
2014-Nov-16 13:23N 54°20' E 010°09'0 0.0
2014-Nov-16 12:29N 54°20' E 010°09'0 0.0
2014-Nov-16 11:23N 54°20' E 010°09'0 0.0
2014-Nov-16 10:05N 54°20' E 010°09'0 0.0
2014-Nov-16 09:10N 54°20' E 010°09'0 0.0
2014-Nov-16 08:10N 54°20' E 010°09'0 0.0
2014-Nov-16 07:23N 54°20' E 010°09'0 0.0
2014-Nov-16 06:29N 54°20' E 010°09'0 0.0
2014-Nov-16 04:23N 54°20' E 010°09'0 0.0
2014-Nov-16 03:29N 54°20' E 010°09'0 0.0
2014-Nov-16 02:29N 54°20' E 010°09'0 0.0
2014-Nov-15 23:23N 54°20' E 010°09'0 0.0
2014-Nov-15 22:22N 54°20' E 010°09'0 0.0
2014-Nov-15 20:10N 54°20' E 010°09'0 0.0
2014-Nov-15 19:29N 54°20' E 010°09'0 0.0
2014-Nov-15 18:22N 54°20' E 010°09'0 0.0
2014-Nov-15 17:28N 54°20' E 010°09'0 0.0
2014-Nov-15 16:28N 54°20' E 010°09'0 0.0
2014-Nov-15 15:22N 54°20' E 010°09'0 0.0
2014-Nov-15 14:28N 54°20' E 010°09'0 0.0
2014-Nov-15 13:28N 54°20' E 010°09'0 0.0
2014-Nov-15 12:16N 54°20' E 010°09'0 0.0
2014-Nov-15 10:22N 54°20' E 010°09'0 0.0
2014-Nov-15 09:04N 54°20' E 010°09'0 0.0
2014-Nov-15 08:22N 54°20' E 010°09'0 0.0
2014-Nov-15 07:22N 54°20' E 010°09'0 0.0
2014-Nov-15 06:28N 54°20' E 010°09'0 0.0
2014-Nov-15 05:28N 54°20' E 010°09'0 0.0
2014-Nov-15 04:28N 54°20' E 010°09'0 0.0
2014-Nov-15 03:28N 54°20' E 010°09'0 0.0
2014-Nov-15 02:22N 54°20' E 010°09'0 0.0
2014-Nov-15 01:28N 54°20' E 010°09'0 0.0
2014-Nov-15 00:28N 54°20' E 010°09'0 0.0
2014-Nov-14 23:28N 54°20' E 010°09'0 0.0
2014-Nov-14 22:28N 54°20' E 010°09'  
Track history (hours):
 
Tides and Currents Weather Stations Pressure Air Temp Water Temp Dewpoint Dewpoint Depression Visibility Wind Speed Wind Dir Waves Ship Positions

Oceanographic research ship Littorina (Germany)

Detailed information on ship capabilities available from University of Delaware's Ocean Information Center.

Last reported at 2014-Nov-24 21:31 UTC. Time now 2014-Nov-24 21:40 UTC.
Position N 53°54' E 009°09'.

Length 30 m; draft 3 m.

Type: Fishing. MMSI: 211214250.

Date/timePositionNaut miles runAvg speedWind from/ knotsBaromVisibWave heightAir tempDewpointWater temp
2014-Nov-24 21:31N 53°54' E 009°09'0 0.0
2014-Nov-24 20:31N 53°54' E 009°09'0 0.0
2014-Nov-24 19:31N 53°54' E 009°09'0 0.0
2014-Nov-24 18:31N 53°54' E 009°09'0 0.0
2014-Nov-24 17:31N 53°54' E 009°09'0 0.0
2014-Nov-24 16:34N 53°54' E 009°09'8 8.3
2014-Nov-24 15:33N 54°00' E 009°18'24 7.8
2014-Nov-24 12:31N 54°19' E 009°43'6 6.4
2014-Nov-24 11:33N 54°21' E 009°53'6 5.6
2014-Nov-24 10:33N 54°22' E 010°02'4 3.8
2014-Nov-24 09:33N 54°22' E 010°09'2 2.2
2014-Nov-24 08:33N 54°20' E 010°09'0 0.0
2014-Nov-24 07:33N 54°20' E 010°09'0 0.0
2014-Nov-24 06:33N 54°20' E 010°09'0 0.0
2014-Nov-24 05:33N 54°20' E 010°09'0 0.0
2014-Nov-24 04:27N 54°20' E 010°09'0 0.0
2014-Nov-24 03:33N 54°20' E 010°09'0 0.0
2014-Nov-24 02:27N 54°20' E 010°09'0 0.0
2014-Nov-24 01:33N 54°20' E 010°09'0 0.0
2014-Nov-24 00:27N 54°20' E 010°09'0 0.0
2014-Nov-23 23:33N 54°20' E 010°09'0 0.0
2014-Nov-23 22:33N 54°20' E 010°09'0 0.0
2014-Nov-23 21:33N 54°20' E 010°09'0 0.0
2014-Nov-23 20:33N 54°20' E 010°09'0 0.0
2014-Nov-23 19:33N 54°20' E 010°09'0 0.0
2014-Nov-23 18:27N 54°20' E 010°09'0 0.0
2014-Nov-23 17:33N 54°20' E 010°09'0 0.0
2014-Nov-23 16:33N 54°20' E 010°09'0 0.0
2014-Nov-23 15:33N 54°20' E 010°09'0 0.0
2014-Nov-23 14:27N 54°20' E 010°09'0 0.0
2014-Nov-23 13:33N 54°20' E 010°09'0 0.0
2014-Nov-23 12:33N 54°20' E 010°09'0 0.0
2014-Nov-23 11:33N 54°20' E 010°09'0 0.0
2014-Nov-23 10:33N 54°20' E 010°09'0 0.0
2014-Nov-23 09:33N 54°20' E 010°09'0 0.0
2014-Nov-23 08:27N 54°20' E 010°09'0 0.0
2014-Nov-23 07:33N 54°20' E 010°09'0 0.0
2014-Nov-23 06:27N 54°20' E 010°09'0 0.0
2014-Nov-23 05:33N 54°20' E 010°09'0 0.0
2014-Nov-23 04:33N 54°20' E 010°09'0 0.0
2014-Nov-23 03:27N 54°20' E 010°09'0 0.0
2014-Nov-23 02:33N 54°20' E 010°09'0 0.0
2014-Nov-23 01:33N 54°20' E 010°09'0 0.0
2014-Nov-23 00:27N 54°20' E 010°09'0 0.0
2014-Nov-22 23:33N 54°20' E 010°09'0 0.0
2014-Nov-22 22:27N 54°20' E 010°09'0 0.0
2014-Nov-22 21:27N 54°20' E 010°09'0 0.0
2014-Nov-22 20:33N 54°20' E 010°09'0 0.0
2014-Nov-22 19:33N 54°20' E 010°09'0 0.0
2014-Nov-22 18:33N 54°20' E 010°09'0 0.0
2014-Nov-22 17:21N 54°20' E 010°09'0 0.0
2014-Nov-22 16:27N 54°20' E 010°09'0 0.0
2014-Nov-22 15:33N 54°20' E 010°09'0 0.0
2014-Nov-22 14:27N 54°20' E 010°09'0 0.0
2014-Nov-22 13:33N 54°20' E 010°09'0 0.0
2014-Nov-22 10:15N 54°20' E 010°09'0 0.0
2014-Nov-22 09:33N 54°20' E 010°09'0 0.0
2014-Nov-22 08:33N 54°20' E 010°09'0 0.0
2014-Nov-22 07:33N 54°20' E 010°09'0 0.0
2014-Nov-22 06:33N 54°20' E 010°09'0 0.0
2014-Nov-22 05:33N 54°20' E 010°09'0 0.0
2014-Nov-22 04:33N 54°20' E 010°09'0 0.0
2014-Nov-22 03:33N 54°20' E 010°09'0 0.0
2014-Nov-22 02:33N 54°20' E 010°09'0 0.0
2014-Nov-22 01:33N 54°20' E 010°09'0 0.0
2014-Nov-22 00:33N 54°20' E 010°09'0 0.0
2014-Nov-21 23:33N 54°20' E 010°09'0 0.0
2014-Nov-21 22:33N 54°20' E 010°09'0 0.0
2014-Nov-21 21:33N 54°20' E 010°09'0 0.0
2014-Nov-21 20:33N 54°20' E 010°09'0 0.0
2014-Nov-21 19:33N 54°20' E 010°09'0 0.0
2014-Nov-21 18:27N 54°20' E 010°09'0 0.0
2014-Nov-21 17:33N 54°20' E 010°09'0 0.0
2014-Nov-21 16:33N 54°20' E 010°09'0 0.0
2014-Nov-21 15:33N 54°20' E 010°09'1 1.0
2014-Nov-21 14:33N 54°20' E 010°11'8 7.4
2014-Nov-21 13:28N 54°28' E 010°13'7 7.4
2014-Nov-21 12:33N 54°31' E 010°03'2 1.4
2014-Nov-21 11:27N 54°32' E 010°04'1 0.8
2014-Nov-21 10:33N 54°33' E 010°05'1 1.1
2014-Nov-21 09:31N 54°32' E 010°03'0 0.3
2014-Nov-21 08:32N 54°32' E 010°03'2 2.0
2014-Nov-21 07:34N 54°31' E 010°01'1 0.1
2014-Nov-20 14:10N 54°30' E 010°00'2 3.4
2014-Nov-20 13:33N 54°30' E 010°04'1 1.1
2014-Nov-20 12:33N 54°30' E 010°02'1 0.4
2014-Nov-20 10:13N 54°30' E 010°04'0 0.4
2014-Nov-20 09:33N 54°30' E 010°04'1 1.4
2014-Nov-20 08:33N 54°31' E 010°03'3 3.1
2014-Nov-20 07:33N 54°29' E 009°58'3 0.2
2014-Nov-19 14:31N 54°28' E 009°54'6 6.1
2014-Nov-19 13:33N 54°31' E 010°03'0 0.3
2014-Nov-19 12:33N 54°31' E 010°04'0 0.2
2014-Nov-19 11:33N 54°31' E 010°04'0 0.3
2014-Nov-19 10:33N 54°31' E 010°04'1 1.2
2014-Nov-19 09:32N 54°32' E 010°02'5 4.9
2014-Nov-19 08:32N 54°30' E 010°10'8 7.8
2014-Nov-19 07:33N 54°22' E 010°11'2 2.3
2014-Nov-19 06:31N 54°20' E 010°09'0 0.0
2014-Nov-19 05:31N 54°20' E 010°09'0 0.0
2014-Nov-19 04:31N 54°20' E 010°09'0 0.0
2014-Nov-19 03:31N 54°20' E 010°09'0 0.0
2014-Nov-19 02:31N 54°20' E 010°09'0 0.0
2014-Nov-19 01:28N 54°20' E 010°09'0 0.0
2014-Nov-19 00:31N 54°20' E 010°09'0 0.0
2014-Nov-18 23:28N 54°20' E 010°09'0 0.0
2014-Nov-18 22:31N 54°20' E 010°09'0 0.0
2014-Nov-18 21:31N 54°20' E 010°09'0 0.0
2014-Nov-18 20:28N 54°20' E 010°09'0 0.0
2014-Nov-18 19:28N 54°20' E 010°09'0 0.0
2014-Nov-18 18:04N 54°20' E 010°09'0 0.0
2014-Nov-18 17:28N 54°20' E 010°09'0 0.0
2014-Nov-18 16:31N 54°20' E 010°09'0 0.0
2014-Nov-18 15:31N 54°20' E 010°09'0 0.0
2014-Nov-18 14:32N 54°20' E 010°09'0 0.0
2014-Nov-18 13:32N 54°20' E 010°09'0 0.0
2014-Nov-18 12:32N 54°20' E 010°09'5 5.4
2014-Nov-18 11:33N 54°25' E 010°12'7 7.5
2014-Nov-18 10:33N 54°31' E 010°05'2 1.6
2014-Nov-18 09:28N 54°32' E 010°02'3 3.0
2014-Nov-18 08:23N 54°30' E 010°07'7 8.0
2014-Nov-18 07:33N 54°24' E 010°12'5 4.5
2014-Nov-18 06:32N 54°20' E 010°09'0 0.0
2014-Nov-18 05:32N 54°20' E 010°09'0 0.0
2014-Nov-18 04:32N 54°20' E 010°09'0 0.0
2014-Nov-18 03:26N 54°20' E 010°09'0 0.0
2014-Nov-18 02:32N 54°20' E 010°09'0 0.0
2014-Nov-18 01:32N 54°20' E 010°09'0 0.0
2014-Nov-18 00:29N 54°20' E 010°09'0 0.0
2014-Nov-17 23:32N 54°20' E 010°09'0 0.0
2014-Nov-17 22:29N 54°20' E 010°09'0 0.0
2014-Nov-17 21:32N 54°20' E 010°09'0 0.0
2014-Nov-17 20:32N 54°20' E 010°09'0 0.0
2014-Nov-17 19:32N 54°20' E 010°09'0 0.0
2014-Nov-17 18:32N 54°20' E 010°09'0 0.0
2014-Nov-17 17:29N 54°20' E 010°09'0 0.0
2014-Nov-17 16:32N 54°20' E 010°09'0 0.0
2014-Nov-17 15:32N 54°20' E 010°09'0 0.0
2014-Nov-17 14:32N 54°20' E 010°09'0 0.0
2014-Nov-17 13:23N 54°20' E 010°09'0 0.0
2014-Nov-17 12:29N 54°20' E 010°09'0 0.0
2014-Nov-17 11:29N 54°20' E 010°09'0 0.0
2014-Nov-17 10:29N 54°20' E 010°09'0 0.0
2014-Nov-17 09:29N 54°20' E 010°09'0 0.0
2014-Nov-17 08:23N 54°20' E 010°09'0 0.0
2014-Nov-17 07:23N 54°20' E 010°09'0 0.0
2014-Nov-17 06:29N 54°20' E 010°09'0 0.0
2014-Nov-17 05:29N 54°20' E 010°09'0 0.0
2014-Nov-17 04:29N 54°20' E 010°09'0 0.0
2014-Nov-17 03:23N 54°20' E 010°09'0 0.0
2014-Nov-17 02:23N 54°20' E 010°09'0 0.0
2014-Nov-17 01:29N 54°20' E 010°09'0 0.0
2014-Nov-17 00:23N 54°20' E 010°09'0 0.0
2014-Nov-16 23:29N 54°20' E 010°09'0 0.0
2014-Nov-16 22:29N 54°20' E 010°09'0 0.0
2014-Nov-16 21:29N 54°20' E 010°09'0 0.0
2014-Nov-16 20:23N 54°20' E 010°09'0 0.0
2014-Nov-16 19:29N 54°20' E 010°09'0 0.0
2014-Nov-16 18:29N 54°20' E 010°09'0 0.0
2014-Nov-16 17:11N 54°20' E 010°09'0 0.0
2014-Nov-16 16:29N 54°20' E 010°09'0 0.0
2014-Nov-16 14:29N 54°20' E 010°09'0 0.0
2014-Nov-16 13:23N 54°20' E 010°09'0 0.0
2014-Nov-16 12:29N 54°20' E 010°09'0 0.0
2014-Nov-16 11:23N 54°20' E 010°09'0 0.0
2014-Nov-16 10:05N 54°20' E 010°09'0 0.0
2014-Nov-16 09:10N 54°20' E 010°09'0 0.0
2014-Nov-16 08:10N 54°20' E 010°09'0 0.0
2014-Nov-16 07:23N 54°20' E 010°09'0 0.0
2014-Nov-16 06:29N 54°20' E 010°09'0 0.0
2014-Nov-16 04:23N 54°20' E 010°09'0 0.0
2014-Nov-16 03:29N 54°20' E 010°09'0 0.0
2014-Nov-16 02:29N 54°20' E 010°09'0 0.0
2014-Nov-15 23:23N 54°20' E 010°09'0 0.0
2014-Nov-15 22:22N 54°20' E 010°09'0 0.0
2014-Nov-15 20:10N 54°20' E 010°09'0 0.0
2014-Nov-15 19:29N 54°20' E 010°09'0 0.0
2014-Nov-15 18:22N 54°20' E 010°09'0 0.0
2014-Nov-15 17:28N 54°20' E 010°09'0 0.0
2014-Nov-15 16:28N 54°20' E 010°09'0 0.0
2014-Nov-15 15:22N 54°20' E 010°09'0 0.0
2014-Nov-15 14:28N 54°20' E 010°09'0 0.0
2014-Nov-15 13:28N 54°20' E 010°09'0 0.0
2014-Nov-15 12:16N 54°20' E 010°09'0 0.0
2014-Nov-15 10:22N 54°20' E 010°09'0 0.0
2014-Nov-15 09:04N 54°20' E 010°09'0 0.0
2014-Nov-15 08:22N 54°20' E 010°09'0 0.0
2014-Nov-15 07:22N 54°20' E 010°09'0 0.0
2014-Nov-15 06:28N 54°20' E 010°09'0 0.0
2014-Nov-15 05:28N 54°20' E 010°09'0 0.0
2014-Nov-15 04:28N 54°20' E 010°09'0 0.0
2014-Nov-15 03:28N 54°20' E 010°09'0 0.0
2014-Nov-15 02:22N 54°20' E 010°09'0 0.0
2014-Nov-15 01:28N 54°20' E 010°09'0 0.0
2014-Nov-15 00:28N 54°20' E 010°09'0 0.0
2014-Nov-14 23:28N 54°20' E 010°09'0 0.0
2014-Nov-14 22:28N 54°20' E 010°09'  

Dump ship's entire track history